sensor_id;sensor_type;location;lat;lon;timestamp;P1;P4;P2;P0;N10;N4;N25;N1;N05;TS
46956;SPS30;32708;51.212;6.788;2023-09-19T00:00:45;3.11;3.05;2.79;2.34;18.71;18.70;18.63;18.21;15.13;0.65
46956;SPS30;32708;51.212;6.788;2023-09-19T00:03:13;2.80;2.77;2.59;2.24;17.91;17.90;17.85;17.54;14.67;0.63
46956;SPS30;32708;51.212;6.788;2023-09-19T00:05:45;2.83;2.80;2.63;2.29;18.36;18.34;18.30;18.00;15.08;0.61
46956;SPS30;32708;51.212;6.788;2023-09-19T00:08:13;3.01;2.97;2.74;2.33;18.62;18.60;18.55;18.17;15.14;0.63
46956;SPS30;32708;51.212;6.788;2023-09-19T00:10:39;2.99;2.94;2.67;2.21;17.67;17.65;17.58;17.16;14.22;0.65
46956;SPS30;32708;51.212;6.788;2023-09-19T00:13:06;3.13;3.08;2.80;2.32;18.58;18.56;18.49;18.05;14.96;0.65
46956;SPS30;32708;51.212;6.788;2023-09-19T00:15:40;3.21;3.16;2.89;2.43;19.43;19.41;19.35;18.92;15.72;0.64
46956;SPS30;32708;51.212;6.788;2023-09-19T00:18:16;3.18;3.12;2.82;2.32;18.62;18.60;18.53;18.07;14.96;0.66
46956;SPS30;32708;51.212;6.788;2023-09-19T00:20:47;3.16;3.10;2.83;2.36;18.90;18.89;18.82;18.39;15.26;0.66
46956;SPS30;32708;51.212;6.788;2023-09-19T00:23:14;2.74;2.70;2.47;2.08;16.62;16.61;16.56;16.19;13.46;0.64
46956;SPS30;32708;51.212;6.788;2023-09-19T00:25:41;2.91;2.86;2.61;2.18;17.43;17.42;17.35;16.95;14.07;0.65
46956;SPS30;32708;51.212;6.788;2023-09-19T00:28:07;2.83;2.78;2.56;2.16;17.26;17.24;17.19;16.82;14.00;0.65
46956;SPS30;32708;51.212;6.788;2023-09-19T00:30:34;3.11;3.06;2.78;2.30;18.38;18.37;18.29;17.85;14.79;0.67
46956;SPS30;32708;51.212;6.788;2023-09-19T00:33:00;3.19;3.13;2.80;2.27;18.22;18.20;18.12;17.63;14.54;0.67
46956;SPS30;32708;51.212;6.788;2023-09-19T00:35:31;3.06;3.00;2.71;2.22;17.81;17.79;17.72;17.27;14.28;0.66
46956;SPS30;32708;51.212;6.788;2023-09-19T00:37:57;3.22;3.16;2.86;2.35;18.83;18.81;18.74;18.27;15.12;0.68
46956;SPS30;32708;51.212;6.788;2023-09-19T00:40:23;3.24;3.18;2.88;2.36;18.94;18.92;18.85;18.37;15.20;0.68
46956;SPS30;32708;51.212;6.788;2023-09-19T00:42:49;3.02;2.97;2.69;2.21;17.72;17.70;17.63;17.19;14.23;0.68
46956;SPS30;32708;51.212;6.788;2023-09-19T00:45:16;3.48;3.41;3.08;2.51;20.13;20.11;20.03;19.51;16.12;0.68
46956;SPS30;32708;51.212;6.788;2023-09-19T00:47:44;3.86;3.76;3.26;2.50;20.05;20.03;19.91;19.20;15.61;0.72
46956;SPS30;32708;51.212;6.788;2023-09-19T00:50:16;3.78;3.68;3.18;2.42;19.39;19.37;19.25;18.53;15.03;0.73
46956;SPS30;32708;51.212;6.788;2023-09-19T00:52:48;3.32;3.24;2.84;2.21;17.72;17.70;17.61;17.02;13.90;0.70
46956;SPS30;32708;51.212;6.788;2023-09-19T00:55:21;4.11;4.03;3.63;2.98;23.85;23.83;23.73;23.13;19.12;0.67
46956;SPS30;32708;51.212;6.788;2023-09-19T00:57:49;3.52;3.46;3.14;2.59;20.72;20.71;20.63;20.12;16.66;0.66
46956;SPS30;32708;51.212;6.788;2023-09-19T01:00:16;3.34;3.28;2.94;2.39;19.17;19.15;19.07;18.56;15.31;0.66
46956;SPS30;32708;51.212;6.788;2023-09-19T01:02:45;3.14;3.08;2.76;2.25;18.02;18.00;17.92;17.45;14.40;0.67
46956;SPS30;32708;51.212;6.788;2023-09-19T01:05:13;3.20;3.14;2.84;2.33;18.68;18.66;18.59;18.12;14.99;0.67
46956;SPS30;32708;51.212;6.788;2023-09-19T01:07:40;3.40;3.33;2.99;2.42;19.38;19.37;19.28;18.75;15.46;0.69
46956;SPS30;32708;51.212;6.788;2023-09-19T01:10:12;3.72;3.64;3.24;2.61;20.88;20.86;20.76;20.17;16.59;0.68
46956;SPS30;32708;51.212;6.788;2023-09-19T01:12:52;3.88;3.79;3.33;2.63;21.05;21.03;20.92;20.26;16.58;0.69
46956;SPS30;32708;51.212;6.788;2023-09-19T01:18:31;3.38;3.30;2.91;2.30;18.42;18.40;18.31;17.73;14.52;0.69
46956;SPS30;32708;51.212;6.788;2023-09-19T01:21:35;3.70;3.60;3.13;2.40;19.26;19.24;19.13;18.45;15.00;0.71
46956;SPS30;32708;51.212;6.788;2023-09-19T01:28:34;3.27;3.20;2.84;2.27;18.23;18.21;18.13;17.60;14.46;0.70
46956;SPS30;32708;51.212;6.788;2023-09-19T01:31:02;3.78;3.69;3.22;2.49;20.00;19.97;19.86;19.18;15.64;0.73
46956;SPS30;32708;51.212;6.788;2023-09-19T01:33:53;3.98;3.87;3.32;2.49;19.99;19.96;19.83;19.05;15.40;0.74
46956;SPS30;32708;51.212;6.788;2023-09-19T01:36:33;3.75;3.65;3.15;2.39;19.21;19.19;19.07;18.36;14.89;0.71
46956;SPS30;32708;51.212;6.788;2023-09-19T01:39:04;3.55;3.45;2.97;2.25;18.08;18.06;17.94;17.26;13.99;0.71
46956;SPS30;32708;51.212;6.788;2023-09-19T01:41:45;3.39;3.30;2.88;2.23;17.91;17.88;17.78;17.17;14.00;0.71
46956;SPS30;32708;51.212;6.788;2023-09-19T01:44:49;3.45;3.37;2.98;2.36;18.91;18.89;18.79;18.21;14.93;0.69
46956;SPS30;32708;51.212;6.788;2023-09-19T01:47:54;3.85;3.75;3.25;2.49;19.97;19.95;19.83;19.11;15.54;0.72
46956;SPS30;32708;51.212;6.788;2023-09-19T01:50:38;3.80;3.68;3.11;2.26;18.19;18.16;18.03;17.23;13.82;0.75
46956;SPS30;32708;51.212;6.788;2023-09-19T01:53:24;4.11;3.98;3.35;2.43;19.51;19.48;19.33;18.46;14.78;0.76
46956;SPS30;32708;51.212;6.788;2023-09-19T01:55:56;4.28;4.15;3.47;2.49;20.03;20.00;19.84;18.91;15.10;0.75
46956;SPS30;32708;51.212;6.788;2023-09-19T01:58:30;4.24;4.11;3.43;2.46;19.74;19.70;19.55;18.62;14.85;0.76
46956;SPS30;32708;51.212;6.788;2023-09-19T02:01:10;4.07;3.95;3.32;2.40;19.29;19.26;19.12;18.25;14.60;0.75
46956;SPS30;32708;51.212;6.788;2023-09-19T02:03:45;4.19;4.07;3.45;2.53;20.35;20.32;20.17;19.31;15.52;0.75
46956;SPS30;32708;51.212;6.788;2023-09-19T02:06:16;4.02;3.90;3.31;2.45;19.66;19.63;19.49;18.67;15.03;0.75
46956;SPS30;32708;51.212;6.788;2023-09-19T02:08:47;3.79;3.69;3.19;2.44;19.60;19.57;19.45;18.75;15.23;0.72
46956;SPS30;32708;51.212;6.788;2023-09-19T02:11:14;3.76;3.67;3.21;2.49;19.95;19.93;19.82;19.14;15.61;0.71
46956;SPS30;32708;51.212;6.788;2023-09-19T02:13:40;3.65;3.55;3.06;2.32;18.66;18.63;18.52;17.82;14.45;0.71
46956;SPS30;32708;51.212;6.788;2023-09-19T02:16:07;3.58;3.49;3.01;2.29;18.35;18.33;18.21;17.53;14.22;0.72
46956;SPS30;32708;51.212;6.788;2023-09-19T02:18:36;3.96;3.85;3.31;2.49;19.98;19.96;19.83;19.06;15.42;0.72
46956;SPS30;32708;51.212;6.788;2023-09-19T02:21:02;3.34;3.26;2.83;2.17;17.43;17.41;17.31;16.70;13.58;0.71
46956;SPS30;32708;51.212;6.788;2023-09-19T02:23:30;3.71;3.62;3.14;2.40;19.28;19.26;19.14;18.45;15.00;0.71
46956;SPS30;32708;51.212;6.788;2023-09-19T02:25:56;4.13;4.02;3.43;2.56;20.55;20.52;20.38;19.56;15.79;0.73
46956;SPS30;32708;51.212;6.788;2023-09-19T02:28:23;3.66;3.55;3.02;2.24;17.98;17.96;17.83;17.09;13.77;0.74
46956;SPS30;32708;51.212;6.788;2023-09-19T02:30:50;3.87;3.76;3.22;2.41;19.34;19.32;19.19;18.43;14.88;0.74
46956;SPS30;32708;51.212;6.788;2023-09-19T02:33:16;3.65;3.55;3.04;2.27;18.22;18.20;18.07;17.35;14.01;0.74
46956;SPS30;32708;51.212;6.788;2023-09-19T02:35:43;3.80;3.68;3.12;2.29;18.41;18.38;18.25;17.47;14.03;0.73
46956;SPS30;32708;51.212;6.788;2023-09-19T02:38:11;4.06;3.93;3.30;2.38;19.10;19.07;18.92;18.05;14.42;0.74
46956;SPS30;32708;51.212;6.788;2023-09-19T02:40:37;4.30;4.16;3.49;2.51;20.18;20.15;19.99;19.07;15.23;0.74
46956;SPS30;32708;51.212;6.788;2023-09-19T02:43:06;3.80;3.69;3.13;2.31;18.54;18.51;18.38;17.60;14.15;0.73
46956;SPS30;32708;51.212;6.788;2023-09-19T02:45:34;3.87;3.75;3.16;2.31;18.52;18.49;18.35;17.54;14.06;0.75
46956;SPS30;32708;51.212;6.788;2023-09-19T02:48:00;4.11;3.99;3.38;2.49;19.98;19.95;19.80;18.96;15.23;0.74
46956;SPS30;32708;51.212;6.788;2023-09-19T02:50:27;3.80;3.69;3.18;2.41;19.34;19.32;19.19;18.47;14.96;0.72
46956;SPS30;32708;51.212;6.788;2023-09-19T02:52:54;4.11;3.99;3.39;2.50;20.09;20.06;19.92;19.08;15.35;0.73
46956;SPS30;32708;51.212;6.788;2023-09-19T02:55:21;3.92;3.80;3.18;2.29;18.39;18.36;18.22;17.37;13.87;0.75
46956;SPS30;32708;51.212;6.788;2023-09-19T02:57:48;4.20;4.06;3.35;2.34;18.81;18.78;18.61;17.65;13.97;0.76
46956;SPS30;32708;51.212;6.788;2023-09-19T03:00:23;4.77;4.60;3.75;2.55;20.50;20.46;20.26;19.11;15.00;0.77
46956;SPS30;32708;51.212;6.788;2023-09-19T03:02:50;4.45;4.29;3.50;2.38;19.16;19.12;18.94;17.87;14.03;0.77
46956;SPS30;32708;51.212;6.788;2023-09-19T03:05:20;4.58;4.41;3.59;2.42;19.51;19.47;19.28;18.17;14.23;0.80
46956;SPS30;32708;51.212;6.788;2023-09-19T03:07:49;4.09;3.95;3.23;2.21;17.82;17.79;17.62;16.65;13.10;0.80
46956;SPS30;32708;51.212;6.788;2023-09-19T03:10:17;3.66;3.54;2.97;2.15;17.24;17.21;17.08;16.29;13.02;0.76
46956;SPS30;32708;51.212;6.788;2023-09-19T03:12:44;3.73;3.63;3.09;2.30;18.50;18.47;18.35;17.60;14.20;0.74
46956;SPS30;32708;51.212;6.788;2023-09-19T03:15:15;3.89;3.76;3.13;2.21;17.79;17.76;17.61;16.74;13.31;0.78
46956;SPS30;32708;51.212;6.788;2023-09-19T03:17:47;4.57;4.41;3.62;2.50;20.14;20.10;19.91;18.85;14.87;0.79
46956;SPS30;32708;51.212;6.788;2023-09-19T03:20:18;4.37;4.23;3.50;2.46;19.76;19.72;19.55;18.56;14.71;0.76
46956;SPS30;32708;51.212;6.788;2023-09-19T03:22:46;4.36;4.22;3.51;2.49;20.01;19.97;19.80;18.84;14.98;0.75
46956;SPS30;32708;51.212;6.788;2023-09-19T03:25:15;3.88;3.76;3.12;2.21;17.76;17.73;17.58;16.72;13.29;0.76
46956;SPS30;32708;51.212;6.788;2023-09-19T03:27:45;3.86;3.74;3.17;2.32;18.64;18.61;18.47;17.67;14.19;0.74
46956;SPS30;32708;51.212;6.788;2023-09-19T03:30:12;3.55;3.45;2.94;2.18;17.50;17.48;17.36;16.64;13.41;0.72
46956;SPS30;32708;51.212;6.788;2023-09-19T03:32:47;3.99;3.87;3.26;2.37;19.00;18.97;18.83;17.98;14.40;0.73
46956;SPS30;32708;51.212;6.788;2023-09-19T03:35:16;4.24;4.09;3.36;2.32;18.69;18.66;18.49;17.50;13.80;0.76
46956;SPS30;32708;51.212;6.788;2023-09-19T03:37:44;4.01;3.88;3.24;2.32;18.64;18.61;18.46;17.59;14.02;0.74
46956;SPS30;32708;51.212;6.788;2023-09-19T03:40:11;3.77;3.66;3.09;2.26;18.18;18.16;18.02;17.24;13.84;0.73
46956;SPS30;32708;51.212;6.788;2023-09-19T03:42:39;3.80;3.68;3.11;2.27;18.26;18.23;18.09;17.30;13.88;0.72
46956;SPS30;32708;51.212;6.788;2023-09-19T03:45:08;4.17;4.05;3.42;2.51;20.14;20.11;19.96;19.09;15.33;0.73
46956;SPS30;32708;51.212;6.788;2023-09-19T03:47:42;4.34;4.20;3.54;2.56;20.60;20.57;20.41;19.49;15.60;0.74
46956;SPS30;32708;51.212;6.788;2023-09-19T03:50:10;4.13;3.99;3.32;2.36;18.98;18.95;18.80;17.88;14.23;0.74
46956;SPS30;32708;51.212;6.788;2023-09-19T03:52:37;4.21;4.06;3.33;2.30;18.46;18.43;18.26;17.27;13.62;0.77
46956;SPS30;32708;51.212;6.788;2023-09-19T03:55:03;4.02;3.89;3.22;2.27;18.23;18.20;18.05;17.14;13.60;0.76
46956;SPS30;32708;51.212;6.788;2023-09-19T03:57:30;4.11;3.98;3.32;2.36;18.95;18.92;18.77;17.86;14.21;0.77
46956;SPS30;32708;51.212;6.788;2023-09-19T03:59:56;4.19;4.06;3.41;2.47;19.81;19.78;19.63;18.73;14.98;0.77
46956;SPS30;32708;51.212;6.788;2023-09-19T04:02:23;4.05;3.93;3.30;2.39;19.20;19.17;19.02;18.16;14.53;0.76
46956;SPS30;32708;51.212;6.788;2023-09-19T04:04:51;4.12;4.00;3.39;2.50;20.08;20.05;19.90;19.06;15.32;0.73
46956;SPS30;32708;51.212;6.788;2023-09-19T04:07:18;3.59;3.48;2.93;2.12;17.04;17.01;16.88;16.12;12.90;0.74
46956;SPS30;32708;51.212;6.788;2023-09-19T04:09:45;3.78;3.67;3.11;2.29;18.39;18.36;18.23;17.45;14.03;0.73
46956;SPS30;32708;51.212;6.788;2023-09-19T04:12:12;4.20;4.07;3.43;2.49;20.01;19.98;19.83;18.94;15.17;0.73
46956;SPS30;32708;51.212;6.788;2023-09-19T04:14:38;4.15;4.03;3.40;2.49;19.98;19.95;19.80;18.94;15.19;0.73
46956;SPS30;32708;51.212;6.788;2023-09-19T04:17:04;3.85;3.74;3.15;2.29;18.42;18.39;18.25;17.44;13.98;0.73
46956;SPS30;32708;51.212;6.788;2023-09-19T04:19:31;4.39;4.24;3.53;2.51;20.20;20.17;20.00;19.03;15.14;0.72
46956;SPS30;32708;51.212;6.788;2023-09-19T04:21:57;4.84;4.68;3.84;2.66;21.42;21.38;21.18;20.06;15.84;0.74
46956;SPS30;32708;51.212;6.788;2023-09-19T04:24:23;4.79;4.62;3.78;2.59;20.82;20.78;20.58;19.45;15.30;0.75
46956;SPS30;32708;51.212;6.788;2023-09-19T04:26:49;3.93;3.80;3.16;2.24;18.01;17.98;17.83;16.95;13.48;0.73
46956;SPS30;32708;51.212;6.788;2023-09-19T04:29:16;4.46;4.32;3.61;2.58;20.71;20.67;20.50;19.53;15.56;0.72
46956;SPS30;32708;51.212;6.788;2023-09-19T04:31:44;4.38;4.24;3.54;2.53;20.31;20.28;20.11;19.15;15.27;0.73
46956;SPS30;32708;51.212;6.788;2023-09-19T04:34:11;4.20;4.07;3.44;2.53;20.28;20.25;20.11;19.24;15.45;0.72
46956;SPS30;32708;51.212;6.788;2023-09-19T04:36:41;4.53;4.39;3.69;2.66;21.39;21.35;21.19;20.22;16.16;0.75
46956;SPS30;32708;51.212;6.788;2023-09-19T04:39:10;5.12;4.95;4.13;2.95;23.73;23.69;23.49;22.37;17.83;0.75
46956;SPS30;32708;51.212;6.788;2023-09-19T04:41:37;4.86;4.70;3.88;2.72;21.90;21.86;21.67;20.57;16.30;0.76
46956;SPS30;32708;51.212;6.788;2023-09-19T04:44:07;4.64;4.49;3.72;2.61;20.98;20.94;20.76;19.71;15.63;0.77
46956;SPS30;32708;51.212;6.788;2023-09-19T04:46:33;4.70;4.56;3.84;2.80;22.50;22.47;22.30;21.32;17.09;0.74
46956;SPS30;32708;51.212;6.788;2023-09-19T04:49:00;5.83;5.68;4.90;3.74;29.97;29.93;29.75;28.65;23.25;0.70
46956;SPS30;32708;51.212;6.788;2023-09-19T04:51:27;5.15;5.01;4.32;3.27;26.25;26.22;26.05;25.07;20.32;0.71
46956;SPS30;32708;51.212;6.788;2023-09-19T04:53:59;4.43;4.30;3.69;2.76;22.19;22.16;22.01;21.14;17.09;0.73
46956;SPS30;32708;51.212;6.788;2023-09-19T04:56:26;5.22;5.06;4.29;3.14;25.26;25.22;25.04;23.96;19.24;0.74
46956;SPS30;32708;51.212;6.788;2023-09-19T04:58:54;4.55;4.42;3.78;2.82;22.66;22.62;22.47;21.57;17.41;0.74
46956;SPS30;32708;51.212;6.788;2023-09-19T05:01:20;4.00;3.90;3.39;2.61;20.90;20.88;20.76;20.02;16.29;0.71
46956;SPS30;32708;51.212;6.788;2023-09-19T05:03:48;3.92;3.81;3.27;2.45;19.70;19.68;19.55;18.78;15.19;0.72
46956;SPS30;32708;51.212;6.788;2023-09-19T05:06:21;4.01;3.90;3.38;2.58;20.74;20.71;20.59;19.84;16.12;0.70
46956;SPS30;32708;51.212;6.788;2023-09-19T05:08:47;3.93;3.82;3.28;2.47;19.83;19.81;19.68;18.92;15.31;0.71
46956;SPS30;32708;51.212;6.788;2023-09-19T05:11:20;4.40;4.27;3.60;2.63;21.10;21.07;20.91;19.99;16.03;0.74
46956;SPS30;32708;51.212;6.788;2023-09-19T05:13:48;3.92;3.81;3.28;2.47;19.85;19.82;19.70;18.94;15.33;0.72
46956;SPS30;32708;51.212;6.788;2023-09-19T05:16:18;4.49;4.36;3.69;2.72;21.81;21.77;21.62;20.69;16.63;0.73
46956;SPS30;32708;51.212;6.788;2023-09-19T05:18:44;4.41;4.28;3.61;2.62;21.08;21.04;20.88;19.95;15.99;0.74
46956;SPS30;32708;51.212;6.788;2023-09-19T05:21:10;4.43;4.29;3.61;2.62;21.07;21.04;20.88;19.94;15.97;0.75
46956;SPS30;32708;51.212;6.788;2023-09-19T05:23:37;5.26;5.10;4.28;3.10;24.91;24.87;24.68;23.56;18.85;0.75
46956;SPS30;32708;51.212;6.788;2023-09-19T05:26:04;4.63;4.48;3.74;2.67;21.46;21.43;21.25;20.24;16.13;0.74
46956;SPS30;32708;51.212;6.788;2023-09-19T05:28:30;6.05;5.88;5.04;3.77;30.28;30.23;30.03;28.84;23.30;0.74
46956;SPS30;32708;51.212;6.788;2023-09-19T05:30:59;4.44;4.32;3.74;2.86;22.92;22.89;22.75;21.92;17.80;0.73
46956;SPS30;32708;51.212;6.788;2023-09-19T05:33:29;4.37;4.25;3.65;2.76;22.12;22.09;21.95;21.10;17.08;0.74
46956;SPS30;32708;51.212;6.788;2023-09-19T05:35:57;4.24;4.13;3.54;2.67;21.39;21.36;21.22;20.40;16.50;0.73
46956;SPS30;32708;51.212;6.788;2023-09-19T05:38:23;4.40;4.28;3.68;2.78;22.29;22.26;22.12;21.27;17.22;0.73
46956;SPS30;32708;51.212;6.788;2023-09-19T05:40:52;4.97;4.82;4.07;2.98;23.91;23.87;23.70;22.66;18.18;0.75
46956;SPS30;32708;51.212;6.788;2023-09-19T05:43:20;4.97;4.81;3.98;2.81;22.56;22.52;22.32;21.20;16.83;0.77
46956;SPS30;32708;51.212;6.788;2023-09-19T05:45:51;5.03;4.88;4.09;2.94;23.62;23.58;23.40;22.31;17.82;0.76
46956;SPS30;32708;51.212;6.788;2023-09-19T05:48:17;5.15;4.99;4.18;3.02;24.23;24.19;24.00;22.90;18.30;0.76
46956;SPS30;32708;51.212;6.788;2023-09-19T05:50:47;4.55;4.41;3.69;2.65;21.31;21.28;21.11;20.13;16.07;0.75
46956;SPS30;32708;51.212;6.788;2023-09-19T05:53:19;4.15;4.03;3.41;2.51;20.15;20.12;19.97;19.12;15.36;0.75
46956;SPS30;32708;51.212;6.788;2023-09-19T05:55:45;9.33;9.05;7.66;5.62;45.10;45.03;44.70;42.77;34.35;0.75
46956;SPS30;32708;51.212;6.788;2023-09-19T05:58:11;5.03;4.92;4.38;3.50;28.08;28.06;27.92;27.11;22.28;0.72
46956;SPS30;32708;51.212;6.788;2023-09-19T06:00:42;4.39;4.27;3.65;2.72;21.83;21.80;21.65;20.78;16.77;0.76
46956;SPS30;32708;51.212;6.788;2023-09-19T06:03:10;4.36;4.23;3.56;2.59;20.81;20.78;20.62;19.70;15.78;0.75
46956;SPS30;32708;51.212;6.788;2023-09-19T06:05:39;4.34;4.21;3.58;2.65;21.26;21.23;21.08;20.20;16.26;0.72
46956;SPS30;32708;51.212;6.788;2023-09-19T06:08:06;4.31;4.20;3.61;2.72;21.87;21.84;21.70;20.87;16.89;0.72
46956;SPS30;32708;51.212;6.788;2023-09-19T06:10:33;4.75;4.60;3.85;2.76;22.21;22.17;22.00;20.97;16.73;0.74
46956;SPS30;32708;51.212;6.788;2023-09-19T06:13:01;4.79;4.63;3.85;2.73;21.98;21.94;21.76;20.70;16.46;0.73
46956;SPS30;32708;51.212;6.788;2023-09-19T06:15:37;5.92;5.73;4.76;3.37;27.11;27.07;26.84;25.52;20.29;0.75
46956;SPS30;32708;51.212;6.788;2023-09-19T06:18:04;6.35;6.14;5.09;3.59;28.84;28.79;28.55;27.12;21.52;0.76
46956;SPS30;32708;51.212;6.788;2023-09-19T06:20:33;4.88;4.72;3.89;2.72;21.84;21.80;21.60;20.48;16.21;0.76
46956;SPS30;32708;51.212;6.788;2023-09-19T06:23:02;5.84;5.66;4.75;3.42;27.50;27.46;27.24;25.99;20.77;0.76
46956;SPS30;32708;51.212;6.788;2023-09-19T06:25:28;4.29;4.18;3.60;2.74;21.95;21.93;21.79;20.97;17.00;0.74
46956;SPS30;32708;51.212;6.788;2023-09-19T06:27:57;4.60;4.45;3.71;2.65;21.27;21.23;21.06;20.05;15.97;0.78
46956;SPS30;32708;51.212;6.788;2023-09-19T06:30:24;9.47;9.15;7.56;5.28;42.47;42.39;42.02;39.85;31.55;0.77
46956;SPS30;32708;51.212;6.788;2023-09-19T06:32:57;8.25;8.07;7.17;5.73;45.89;45.84;45.62;44.28;36.38;0.71
46956;SPS30;32708;51.212;6.788;2023-09-19T06:35:24;3.64;3.58;3.29;2.76;22.12;22.10;22.02;21.54;17.91;0.67
46956;SPS30;32708;51.212;6.788;2023-09-19T06:38:18;4.31;4.20;3.63;2.76;22.15;22.12;21.98;21.17;17.18;0.72
46956;SPS30;32708;51.212;6.788;2023-09-19T06:40:44;4.74;4.59;3.86;2.79;22.43;22.40;22.22;21.21;16.97;0.75
46956;SPS30;32708;51.212;6.788;2023-09-19T06:43:11;5.38;5.18;4.21;2.83;22.80;22.76;22.53;21.22;16.60;0.78
46956;SPS30;32708;51.212;6.788;2023-09-19T06:45:38;5.38;5.18;4.20;2.82;22.72;22.67;22.44;21.13;16.52;0.77
46956;SPS30;32708;51.212;6.788;2023-09-19T06:48:04;5.00;4.81;3.85;2.54;20.42;20.38;20.16;18.89;14.67;0.78
46956;SPS30;32708;51.212;6.788;2023-09-19T06:50:30;5.49;5.28;4.23;2.77;22.28;22.23;21.99;20.59;15.95;0.77
46956;SPS30;32708;51.212;6.788;2023-09-19T06:52:58;5.03;4.84;3.91;2.61;20.98;20.94;20.72;19.48;15.19;0.77
46956;SPS30;32708;51.212;6.788;2023-09-19T06:55:25;4.87;4.68;3.75;2.46;19.86;19.81;19.60;18.36;14.25;0.79
46956;SPS30;32708;51.212;6.788;2023-09-19T06:57:56;5.14;4.94;3.93;2.54;20.47;20.43;20.19;18.86;14.55;0.80
46956;SPS30;32708;51.212;6.788;2023-09-19T07:00:24;5.41;5.19;4.11;2.63;21.21;21.16;20.91;19.49;14.98;0.81
46956;SPS30;32708;51.212;6.788;2023-09-19T07:02:54;5.26;5.05;4.03;2.61;21.06;21.01;20.77;19.42;15.00;0.79
46956;SPS30;32708;51.212;6.788;2023-09-19T07:05:22;5.08;4.88;3.87;2.49;20.04;20.00;19.76;18.44;14.19;0.79
46956;SPS30;32708;51.212;6.788;2023-09-19T07:07:49;4.66;4.49;3.64;2.44;19.64;19.60;19.40;18.26;14.27;0.78
46956;SPS30;32708;51.212;6.788;2023-09-19T07:10:15;5.37;5.17;4.18;2.79;22.49;22.44;22.21;20.89;16.30;0.78
46956;SPS30;32708;51.212;6.788;2023-09-19T07:12:41;5.53;5.32;4.28;2.82;22.71;22.66;22.41;21.02;16.33;0.78
46956;SPS30;32708;51.212;6.788;2023-09-19T07:15:08;5.64;5.42;4.34;2.83;22.82;22.77;22.52;21.08;16.33;0.79
46956;SPS30;32708;51.212;6.788;2023-09-19T07:17:34;6.36;6.14;5.01;3.42;27.54;27.48;27.22;25.71;20.21;0.78
46956;SPS30;32708;51.212;6.788;2023-09-19T07:20:02;5.19;5.03;4.20;3.01;24.16;24.12;23.93;22.79;18.18;0.75
46956;SPS30;32708;51.212;6.788;2023-09-19T07:22:33;4.52;4.37;3.63;2.56;20.59;20.56;20.38;19.37;15.38;0.77
46956;SPS30;32708;51.212;6.788;2023-09-19T07:24:59;5.50;5.31;4.34;2.98;24.01;23.96;23.74;22.44;17.67;0.78
46956;SPS30;32708;51.212;6.788;2023-09-19T07:27:25;5.12;4.93;4.00;2.69;21.68;21.63;21.42;20.17;15.78;0.81
46956;SPS30;32708;51.212;6.788;2023-09-19T07:29:52;5.18;4.99;4.05;2.72;21.87;21.83;21.61;20.34;15.90;0.81
46956;SPS30;32708;51.212;6.788;2023-09-19T07:32:18;5.41;5.21;4.17;2.73;21.99;21.94;21.70;20.33;15.76;0.81
46956;SPS30;32708;51.212;6.788;2023-09-19T07:34:44;4.80;4.63;3.79;2.61;20.97;20.93;20.73;19.60;15.44;0.77
46956;SPS30;32708;51.212;6.788;2023-09-19T07:37:10;4.89;4.73;3.91;2.75;22.10;22.06;21.87;20.76;16.47;0.77
46956;SPS30;32708;51.212;6.788;2023-09-19T07:39:41;4.64;4.48;3.67;2.53;20.35;20.31;20.12;19.04;15.00;0.78
46956;SPS30;32708;51.212;6.788;2023-09-19T07:42:07;4.96;4.78;3.88;2.62;21.09;21.05;20.84;19.64;15.38;0.79
46956;SPS30;32708;51.212;6.788;2023-09-19T07:44:34;4.74;4.58;3.80;2.67;21.49;21.45;21.27;20.20;16.03;0.77
46956;SPS30;32708;51.212;6.788;2023-09-19T07:47:01;4.49;4.35;3.61;2.54;20.46;20.42;20.25;19.24;15.28;0.75
46956;SPS30;32708;51.212;6.788;2023-09-19T07:49:28;4.35;4.21;3.49;2.46;19.80;19.77;19.60;18.63;14.79;0.76
46956;SPS30;32708;51.212;6.788;2023-09-19T07:51:55;4.84;4.68;3.86;2.70;21.68;21.65;21.45;20.35;16.10;0.76
46956;SPS30;32708;51.212;6.788;2023-09-19T07:54:22;6.78;6.57;5.55;4.05;32.52;32.47;32.23;30.81;24.71;0.73
46956;SPS30;32708;51.212;6.788;2023-09-19T07:56:48;5.99;5.86;5.17;4.09;32.77;32.74;32.57;31.56;25.86;0.67
46956;SPS30;32708;51.212;6.788;2023-09-19T07:59:14;3.95;3.86;3.41;2.70;21.63;21.61;21.50;20.83;17.08;0.68
46956;SPS30;32708;51.212;6.788;2023-09-19T08:01:41;3.89;3.79;3.29;2.53;20.28;20.25;20.13;19.41;15.79;0.69
46956;SPS30;32708;51.212;6.788;2023-09-19T08:04:09;3.69;3.60;3.10;2.36;18.94;18.92;18.80;18.10;14.68;0.71
46956;SPS30;32708;51.212;6.788;2023-09-19T08:06:35;3.99;3.89;3.36;2.56;20.56;20.53;20.40;19.65;15.95;0.70
46956;SPS30;32708;51.212;6.788;2023-09-19T08:09:04;4.90;4.76;4.05;3.01;24.14;24.11;23.94;22.95;18.49;0.72
46956;SPS30;32708;51.212;6.788;2023-09-19T08:11:34;5.24;5.07;4.23;3.02;24.29;24.25;24.05;22.90;18.25;0.74
46956;SPS30;32708;51.212;6.788;2023-09-19T08:14:00;3.94;3.83;3.27;2.44;19.55;19.52;19.39;18.60;15.01;0.72
46956;SPS30;32708;51.212;6.788;2023-09-19T08:16:28;3.92;3.81;3.22;2.36;18.96;18.93;18.79;17.98;14.44;0.74
46956;SPS30;32708;51.212;6.788;2023-09-19T08:18:54;3.95;3.83;3.23;2.36;18.92;18.89;18.75;17.92;14.37;0.71
46956;SPS30;32708;51.212;6.788;2023-09-19T08:21:21;4.92;4.78;4.08;3.05;24.46;24.42;24.26;23.28;18.78;0.71
46956;SPS30;32708;51.212;6.788;2023-09-19T08:23:49;4.33;4.21;3.63;2.74;22.01;21.98;21.84;21.01;17.02;0.70
46956;SPS30;32708;51.212;6.788;2023-09-19T08:26:15;4.10;3.98;3.41;2.55;20.45;20.42;20.28;19.48;15.73;0.72
46956;SPS30;32708;51.212;6.788;2023-09-19T08:28:42;4.82;4.67;3.93;2.85;22.87;22.84;22.66;21.64;17.32;0.75
46956;SPS30;32708;51.212;6.788;2023-09-19T08:31:08;4.38;4.24;3.55;2.55;20.48;20.44;20.28;19.33;15.43;0.77
46956;SPS30;32708;51.212;6.788;2023-09-19T08:33:35;3.91;3.79;3.24;2.42;19.43;19.41;19.28;18.50;14.93;0.74
46956;SPS30;32708;51.212;6.788;2023-09-19T08:36:03;4.75;4.61;3.90;2.86;22.94;22.91;22.74;21.75;17.46;0.75
46956;SPS30;32708;51.212;6.788;2023-09-19T08:38:31;4.65;4.52;3.85;2.85;22.92;22.88;22.72;21.79;17.55;0.75
46956;SPS30;32708;51.212;6.788;2023-09-19T08:41:00;4.29;4.17;3.57;2.68;21.52;21.49;21.35;20.50;16.57;0.73
46956;SPS30;32708;51.212;6.788;2023-09-19T08:43:30;3.89;3.78;3.21;2.37;19.01;18.98;18.85;18.05;14.52;0.73
46956;SPS30;32708;51.212;6.788;2023-09-19T08:48:51;5.05;4.88;4.01;2.78;22.35;22.31;22.11;20.94;16.53;0.76
46956;SPS30;32708;51.212;6.788;2023-09-19T08:51:41;4.42;4.27;3.54;2.49;20.02;19.98;19.81;18.81;14.92;0.74
46956;SPS30;32708;51.212;6.788;2023-09-19T08:54:26;5.40;5.27;4.60;3.57;28.62;28.58;28.42;27.46;22.39;0.68
46956;SPS30;32708;51.212;6.788;2023-09-19T08:57:05;5.58;5.46;4.87;3.92;31.40;31.37;31.23;30.34;24.97;0.66
46956;SPS30;32708;51.212;6.788;2023-09-19T08:59:39;3.39;3.31;2.93;2.33;18.70;18.68;18.59;18.03;14.79;0.67
46956;SPS30;32708;51.212;6.788;2023-09-19T09:02:12;3.82;3.71;3.18;2.38;19.10;19.08;18.95;18.19;14.70;0.72
46956;SPS30;32708;51.212;6.788;2023-09-19T09:04:43;3.99;3.86;3.23;2.32;18.61;18.58;18.43;17.56;14.01;0.73
46956;SPS30;32708;51.212;6.788;2023-09-19T09:07:11;4.24;4.09;3.32;2.25;18.09;18.05;17.87;16.85;13.20;0.77
46956;SPS30;32708;51.212;6.788;2023-09-19T09:09:40;4.57;4.41;3.61;2.48;19.97;19.93;19.74;18.67;14.71;0.76
46956;SPS30;32708;51.212;6.788;2023-09-19T09:12:11;4.84;4.68;3.86;2.70;21.71;21.67;21.48;20.37;16.13;0.75
46956;SPS30;32708;51.212;6.788;2023-09-19T09:14:40;4.68;4.52;3.75;2.65;21.29;21.25;21.07;20.02;15.90;0.74
46956;SPS30;32708;51.212;6.788;2023-09-19T09:17:14;4.55;4.40;3.65;2.58;20.74;20.71;20.53;19.51;15.50;0.75
46956;SPS30;32708;51.212;6.788;2023-09-19T09:19:40;4.29;4.15;3.46;2.47;19.84;19.81;19.65;18.70;14.90;0.75
46956;SPS30;32708;51.212;6.788;2023-09-19T09:22:08;4.56;4.40;3.61;2.49;20.02;19.98;19.79;18.73;14.77;0.77
46956;SPS30;32708;51.212;6.788;2023-09-19T09:24:37;4.55;4.39;3.60;2.48;19.96;19.92;19.74;18.67;14.72;0.78
46956;SPS30;32708;51.212;6.788;2023-09-19T09:27:19;4.57;4.42;3.69;2.64;21.20;21.16;20.99;19.99;15.93;0.77
46956;SPS30;32708;51.212;6.788;2023-09-19T09:29:49;5.30;5.14;4.33;3.16;25.39;25.35;25.16;24.05;19.28;0.75